Time;durP1;ratioP1;P1;durP2;ratioP2;P2;SDS_P1;SDS_P2;PMS_P1;PMS_P2;Temp;Humidity;BMP_temperature;BMP_pressure;BME280_temperature;BME280_humidity;BME280_pressure;Samples;Min_cycle;Max_cycle;Signal;HPM_P1;HPM_P2
2023/09/01 00:01:52;;;;;;;7.50;4.05;;;16.40;99.90;;;;;;4937397;29;20035;-72
2023/09/01 00:04:18;;;;;;;9.25;4.53;;;16.40;99.90;;;;;;4937053;29;20027;-72
2023/09/01 00:06:43;;;;;;;11.63;4.63;;;16.40;99.90;;;;;;4966564;28;20055;-71
2023/09/01 00:09:09;;;;;;;10.00;4.30;;;16.40;99.90;;;;;;4953979;28;20095;-72
2023/09/01 00:11:34;;;;;;;9.63;4.45;;;16.40;99.90;;;;;;4964272;28;20096;-72
2023/09/01 00:14:00;;;;;;;12.05;4.82;;;16.30;99.90;;;;;;4957003;28;20015;-72
2023/09/01 00:16:26;;;;;;;8.13;4.82;;;16.30;99.90;;;;;;4935470;29;20028;-72
2023/09/01 00:18:51;;;;;;;9.07;4.20;;;16.30;99.90;;;;;;4957744;28;20102;-72
2023/09/01 00:21:17;;;;;;;9.75;4.50;;;16.30;99.90;;;;;;4947591;29;20023;-72
2023/09/01 00:23:43;;;;;;;8.23;4.10;;;16.20;99.90;;;;;;4952816;29;20034;-72
2023/09/01 00:26:08;;;;;;;10.82;5.07;;;16.20;99.90;;;;;;4961758;28;20014;-71
2023/09/01 00:28:34;;;;;;;9.98;4.82;;;16.10;99.90;;;;;;4943711;29;20540;-71
2023/09/01 00:31:00;;;;;;;11.00;4.82;;;16.10;99.90;;;;;;4964685;28;20323;-71
2023/09/01 00:33:30;;;;;;;9.18;4.47;;;16.10;99.90;;;;;;4961982;28;20046;-71
2023/09/01 00:35:57;;;;;;;9.57;4.70;;;16.10;99.90;;;;;;4970211;28;20026;-72
2023/09/01 00:38:29;;;;;;;11.13;4.63;;;16.10;99.90;;;;;;4963959;28;20073;-71
2023/09/01 00:40:58;;;;;;;10.48;4.30;;;16.00;99.90;;;;;;4955173;29;20027;-71
2023/09/01 00:43:25;;;;;;;12.98;4.65;;;16.00;99.90;;;;;;4963279;28;20038;-71
2023/09/01 00:45:51;;;;;;;10.43;4.65;;;16.10;99.90;;;;;;4945408;29;20042;-71
2023/09/01 00:48:17;;;;;;;11.55;4.85;;;16.10;99.90;;;;;;4969431;28;20027;-71
2023/09/01 00:50:47;;;;;;;9.77;4.70;;;16.10;99.90;;;;;;4950521;28;20034;-71
2023/09/01 00:53:13;;;;;;;8.80;4.85;;;16.10;99.90;;;;;;4960827;28;20449;-71
2023/09/01 00:55:40;;;;;;;10.93;5.15;;;16.10;99.90;;;;;;4966941;28;20014;-71
2023/09/01 00:58:05;;;;;;;7.72;4.70;;;16.10;99.90;;;;;;4959291;28;20023;-71
2023/09/01 01:00:32;;;;;;;12.95;5.22;;;16.10;99.90;;;;;;4943860;29;20106;-71
2023/09/01 01:03:08;;;;;;;8.35;4.35;;;16.10;99.90;;;;;;4966595;28;20977;-70
2023/09/01 01:05:56;;;;;;;8.57;4.30;;;16.10;99.90;;;;;;4964134;28;20038;-71
2023/09/01 01:08:47;;;;;;;10.20;4.93;;;16.00;99.90;;;;;;4972228;28;20548;-71
2023/09/01 01:11:30;;;;;;;13.75;4.88;;;16.00;99.90;;;;;;4971444;28;20038;-71
2023/09/01 01:14:04;;;;;;;9.45;4.78;;;15.90;99.90;;;;;;4961755;28;20014;-71
2023/09/01 01:16:31;;;;;;;10.38;4.35;;;15.90;99.90;;;;;;4965047;28;20105;-71
2023/09/01 01:19:09;;;;;;;9.85;4.72;;;15.90;99.90;;;;;;4951984;28;20085;-72
2023/09/01 01:21:39;;;;;;;11.20;4.65;;;15.80;99.90;;;;;;4947827;28;20489;-72
2023/09/01 01:24:05;;;;;;;9.63;4.50;;;15.80;99.90;;;;;;4961395;28;20178;-71
2023/09/01 01:26:31;;;;;;;10.13;5.35;;;15.80;99.90;;;;;;4966506;28;20019;-71
2023/09/01 01:28:56;;;;;;;12.52;5.18;;;15.80;99.90;;;;;;4956089;28;20706;-71
2023/09/01 01:31:22;;;;;;;9.45;4.43;;;15.90;99.90;;;;;;4968201;28;20074;-71
2023/09/01 01:34:30;;;;;;;10.90;4.72;;;15.80;99.90;;;;;;4955558;28;20024;-71
2023/09/01 01:37:17;;;;;;;12.68;4.70;;;15.80;99.90;;;;;;4951810;28;20035;-71
2023/09/01 01:39:46;;;;;;;9.98;4.47;;;15.80;99.90;;;;;;4958271;28;20192;-71
2023/09/01 01:42:17;;;;;;;7.10;4.13;;;15.80;99.90;;;;;;4963144;28;20031;-71
2023/09/01 01:44:47;;;;;;;7.60;3.92;;;15.80;99.90;;;;;;4969028;28;20030;-71
2023/09/01 01:47:14;;;;;;;7.25;4.05;;;15.70;99.90;;;;;;4963740;28;20113;-71
2023/09/01 01:49:43;;;;;;;9.88;4.40;;;15.70;99.90;;;;;;4968684;28;20023;-71
2023/09/01 01:52:08;;;;;;;9.82;4.50;;;15.70;99.90;;;;;;4964034;28;20054;-71
2023/09/01 01:54:34;;;;;;;10.18;4.97;;;15.70;99.90;;;;;;4960561;28;20020;-71
2023/09/01 01:57:00;;;;;;;8.40;4.53;;;15.60;99.90;;;;;;4966888;28;20054;-71
2023/09/01 01:59:26;;;;;;;8.18;4.28;;;15.60;99.90;;;;;;4966706;28;20011;-71
2023/09/01 02:01:51;;;;;;;9.80;4.70;;;15.60;99.90;;;;;;4973119;28;20122;-71
2023/09/01 02:04:17;;;;;;;8.30;4.45;;;15.60;99.90;;;;;;4970189;28;20030;-71
2023/09/01 02:06:43;;;;;;;9.10;4.43;;;15.60;99.90;;;;;;4964516;28;20092;-71
2023/09/01 02:09:12;;;;;;;8.23;4.72;;;15.60;99.90;;;;;;4965022;28;20448;-71
2023/09/01 02:11:43;;;;;;;7.70;4.85;;;15.60;99.90;;;;;;4958309;28;20031;-71
2023/09/01 02:14:09;;;;;;;8.18;4.82;;;15.60;99.90;;;;;;4968545;28;20025;-71
2023/09/01 02:16:34;;;;;;;8.25;4.50;;;15.50;99.90;;;;;;4965104;28;20022;-71
2023/09/01 02:19:00;;;;;;;7.88;4.55;;;15.50;99.90;;;;;;4960343;28;20046;-71
2023/09/01 02:21:26;;;;;;;9.50;4.88;;;15.50;99.90;;;;;;4965762;28;20050;-70
2023/09/01 02:23:51;;;;;;;10.45;4.63;;;15.50;99.90;;;;;;4967970;28;20393;-70
2023/09/01 02:26:18;;;;;;;8.57;4.43;;;15.50;99.90;;;;;;4959933;28;20031;-71
2023/09/01 02:28:45;;;;;;;6.50;4.38;;;15.50;99.90;;;;;;4961437;28;20023;-72
2023/09/01 02:31:14;;;;;;;8.90;4.55;;;15.50;99.90;;;;;;4968237;28;20054;-71
2023/09/01 02:33:40;;;;;;;9.70;4.30;;;15.50;99.90;;;;;;4964981;28;20118;-70
2023/09/01 02:36:31;;;;;;;9.40;4.78;;;15.50;99.90;;;;;;4960015;28;20019;-71
2023/09/01 02:38:57;;;;;;;8.90;4.88;;;15.40;99.90;;;;;;4961054;28;20090;-72
2023/09/01 02:41:24;;;;;;;8.70;4.07;;;15.40;99.90;;;;;;4953066;28;20027;-71
2023/09/01 02:43:50;;;;;;;7.78;4.03;;;15.40;99.90;;;;;;4958410;28;20473;-71
2023/09/01 02:46:16;;;;;;;9.60;4.60;;;15.40;99.90;;;;;;4965327;28;20094;-71
2023/09/01 02:48:42;;;;;;;9.50;4.70;;;15.30;99.90;;;;;;4952552;29;20019;-71
2023/09/01 02:51:11;;;;;;;10.73;5.30;;;15.40;99.90;;;;;;4944153;28;20097;-71
2023/09/01 02:53:37;;;;;;;10.43;4.47;;;15.40;99.90;;;;;;4961469;28;20035;-71
2023/09/01 02:56:03;;;;;;;9.40;4.10;;;15.40;99.90;;;;;;4960149;28;20037;-71
2023/09/01 02:58:29;;;;;;;9.52;5.03;;;15.40;99.90;;;;;;4958978;28;20053;-71
2023/09/01 03:00:55;;;;;;;10.30;5.20;;;15.40;99.90;;;;;;4944330;29;20042;-71
2023/09/01 03:03:22;;;;;;;9.05;4.78;;;15.40;99.90;;;;;;4959043;28;20126;-71
2023/09/01 03:05:49;;;;;;;13.60;5.20;;;15.40;99.90;;;;;;4946416;28;20023;-71
2023/09/01 03:08:17;;;;;;;11.60;5.35;;;15.40;99.90;;;;;;4941554;28;20043;-71
2023/09/01 03:10:44;;;;;;;10.20;5.65;;;15.40;99.90;;;;;;4969289;28;20402;-72
2023/09/01 03:13:09;;;;;;;9.93;4.93;;;15.40;99.90;;;;;;4962678;28;20026;-71
2023/09/01 03:15:35;;;;;;;7.78;4.47;;;15.40;99.90;;;;;;4967187;28;20448;-71
2023/09/01 03:18:02;;;;;;;9.13;4.88;;;15.30;99.90;;;;;;4960065;28;20030;-71
2023/09/01 03:20:28;;;;;;;11.95;5.50;;;15.30;99.90;;;;;;4960290;28;20027;-71
2023/09/01 03:22:53;;;;;;;10.38;5.85;;;15.30;99.90;;;;;;4965120;28;20042;-71
2023/09/01 03:25:19;;;;;;;9.43;5.25;;;15.30;99.90;;;;;;4967641;28;20027;-71
2023/09/01 03:27:45;;;;;;;11.63;6.60;;;15.30;99.90;;;;;;4959546;28;20073;-71
2023/09/01 03:30:12;;;;;;;10.98;6.40;;;15.30;99.90;;;;;;4954780;28;20039;-71
2023/09/01 03:32:37;;;;;;;9.25;5.40;;;15.30;99.90;;;;;;4966510;28;20038;-71
2023/09/01 03:35:04;;;;;;;14.02;6.57;;;15.30;99.90;;;;;;4962358;28;20023;-70
2023/09/01 03:37:31;;;;;;;11.73;6.90;;;15.30;99.90;;;;;;4958664;28;20031;-72
2023/09/01 03:39:59;;;;;;;13.00;6.25;;;15.30;99.90;;;;;;4965907;28;20087;-72
2023/09/01 03:42:26;;;;;;;10.40;6.38;;;15.30;99.90;;;;;;4953222;29;20402;-72
2023/09/01 03:44:52;;;;;;;10.82;6.28;;;15.40;99.90;;;;;;4959077;28;20027;-71
2023/09/01 03:47:18;;;;;;;9.60;6.40;;;15.40;99.90;;;;;;4958610;28;20035;-71
2023/09/01 03:49:44;;;;;;;12.05;6.72;;;15.40;99.90;;;;;;4963757;28;20046;-71
2023/09/01 03:52:09;;;;;;;12.23;5.80;;;15.40;99.90;;;;;;4963034;28;20019;-71
2023/09/01 03:54:35;;;;;;;11.50;6.50;;;15.40;99.90;;;;;;4949289;28;20019;-71
2023/09/01 03:57:01;;;;;;;14.77;6.45;;;15.40;99.90;;;;;;4960636;28;20461;-71
2023/09/01 03:59:26;;;;;;;10.93;5.68;;;15.40;99.90;;;;;;4959097;28;20892;-71
2023/09/01 04:01:52;;;;;;;11.45;6.95;;;15.40;99.90;;;;;;4957757;28;20043;-71
2023/09/01 04:04:18;;;;;;;12.30;6.18;;;15.40;99.90;;;;;;4968795;28;20029;-71
2023/09/01 04:06:45;;;;;;;9.00;6.28;;;15.40;99.90;;;;;;4963313;28;20023;-71
2023/09/01 04:09:11;;;;;;;10.85;6.85;;;15.50;99.90;;;;;;4965590;28;20077;-71
2023/09/01 04:11:37;;;;;;;12.30;6.53;;;15.40;99.90;;;;;;4959787;28;20027;-72
2023/09/01 04:14:08;;;;;;;11.73;6.82;;;15.40;99.90;;;;;;4968645;28;20027;-71
2023/09/01 04:16:34;;;;;;;9.55;6.15;;;15.40;99.90;;;;;;4949823;28;20460;-71
2023/09/01 04:19:00;;;;;;;10.75;6.68;;;15.40;99.90;;;;;;4959556;28;20051;-72
2023/09/01 04:21:25;;;;;;;14.13;7.55;;;15.50;99.90;;;;;;4956578;28;20027;-71
2023/09/01 04:23:51;;;;;;;10.85;6.15;;;15.40;99.90;;;;;;4965813;28;20034;-72
2023/09/01 04:26:17;;;;;;;12.50;7.22;;;15.40;99.90;;;;;;4960047;28;20681;-72
2023/09/01 04:28:42;;;;;;;11.95;6.15;;;15.40;99.90;;;;;;4958692;28;20810;-72
2023/09/01 04:31:25;;;;;;;11.30;6.25;;;15.50;99.90;;;;;;4970272;28;20035;-72
2023/09/01 04:33:50;;;;;;;14.32;7.43;;;15.50;99.90;;;;;;4968734;28;20050;-72
2023/09/01 04:36:16;;;;;;;12.15;6.80;;;15.50;99.90;;;;;;4962103;28;20058;-72
2023/09/01 04:38:42;;;;;;;15.02;8.00;;;15.50;99.90;;;;;;4964985;28;20051;-72
2023/09/01 04:41:08;;;;;;;12.88;7.43;;;15.50;99.90;;;;;;4970149;28;20078;-73
2023/09/01 04:43:33;;;;;;;13.18;8.32;;;15.50;99.90;;;;;;4964472;28;20027;-73
2023/09/01 04:45:59;;;;;;;13.73;7.10;;;15.50;99.90;;;;;;4961653;28;20504;-72
2023/09/01 04:48:28;;;;;;;13.52;7.85;;;15.50;99.90;;;;;;4955620;28;20042;-73
2023/09/01 04:50:54;;;;;;;10.73;5.82;;;15.50;99.90;;;;;;4969000;28;20155;-72
2023/09/01 04:53:20;;;;;;;12.80;7.78;;;15.50;99.90;;;;;;4944218;28;20134;-72
2023/09/01 04:55:46;;;;;;;11.68;6.75;;;15.50;99.90;;;;;;4964749;28;20034;-72
2023/09/01 04:58:12;;;;;;;11.90;7.13;;;15.50;99.90;;;;;;4969389;28;20023;-72
2023/09/01 05:00:38;;;;;;;11.27;7.18;;;15.50;99.90;;;;;;4947830;28;20031;-71
2023/09/01 05:03:04;;;;;;;11.57;6.53;;;15.50;99.90;;;;;;4943603;28;20027;-72
2023/09/01 05:05:29;;;;;;;9.63;6.38;;;15.50;99.90;;;;;;4964108;28;20090;-72
2023/09/01 05:07:56;;;;;;;13.85;7.68;;;15.50;99.90;;;;;;4958983;28;20074;-72
2023/09/01 05:10:22;;;;;;;12.50;7.38;;;15.60;99.90;;;;;;4970703;28;20030;-72
2023/09/01 05:12:47;;;;;;;12.05;7.13;;;15.60;99.90;;;;;;4967675;28;20078;-72
2023/09/01 05:15:13;;;;;;;13.00;7.53;;;15.50;99.90;;;;;;4967527;28;20065;-72
2023/09/01 05:17:39;;;;;;;10.90;7.00;;;15.60;99.90;;;;;;4972117;28;20034;-71
2023/09/01 05:20:11;;;;;;;12.77;8.07;;;15.60;99.90;;;;;;4970479;28;20027;-72
2023/09/01 05:22:39;;;;;;;12.15;7.80;;;15.60;99.90;;;;;;4968865;28;20050;-72
2023/09/01 05:25:05;;;;;;;14.52;7.40;;;15.60;99.90;;;;;;4966379;28;20030;-72
2023/09/01 05:27:37;;;;;;;14.88;7.63;;;15.60;99.90;;;;;;4950069;28;20026;-73
2023/09/01 05:30:03;;;;;;;11.65;6.65;;;15.60;99.90;;;;;;4962602;28;20020;-71
2023/09/01 05:32:29;;;;;;;13.73;7.47;;;15.60;99.90;;;;;;4957900;28;20098;-71
2023/09/01 05:34:55;;;;;;;14.30;7.75;;;15.70;99.90;;;;;;4967337;28;20023;-72
2023/09/01 05:37:21;;;;;;;12.48;6.53;;;15.70;99.90;;;;;;4968474;28;20349;-71
2023/09/01 05:39:46;;;;;;;13.88;8.23;;;15.70;99.90;;;;;;4972125;28;20109;-72
2023/09/01 05:42:14;;;;;;;14.02;7.65;;;15.70;99.90;;;;;;4970270;28;20059;-72
2023/09/01 05:44:41;;;;;;;11.30;6.55;;;15.70;99.90;;;;;;4970858;28;20109;-72
2023/09/01 05:47:07;;;;;;;12.30;7.35;;;15.70;99.90;;;;;;4972464;28;20027;-72
2023/09/01 05:49:34;;;;;;;10.15;7.47;;;15.70;99.90;;;;;;4967058;28;20560;-72
2023/09/01 05:52:01;;;;;;;12.30;7.45;;;15.70;99.90;;;;;;4969634;28;20054;-72
2023/09/01 05:54:27;;;;;;;12.77;7.75;;;15.80;99.90;;;;;;4963148;28;20130;-72
2023/09/01 05:56:53;;;;;;;11.57;7.35;;;15.80;99.90;;;;;;4961476;28;20364;-72
2023/09/01 05:59:19;;;;;;;13.88;8.30;;;15.80;99.90;;;;;;4961577;28;20106;-72
2023/09/01 06:01:46;;;;;;;11.65;8.35;;;15.80;99.90;;;;;;4962352;28;20131;-72
2023/09/01 06:04:12;;;;;;;14.30;9.15;;;15.80;99.90;;;;;;4956393;28;20078;-72
2023/09/01 06:06:38;;;;;;;13.20;8.30;;;15.90;99.90;;;;;;4957971;28;20082;-72
2023/09/01 06:09:07;;;;;;;13.13;8.27;;;15.90;99.90;;;;;;4965158;28;20027;-72
2023/09/01 06:11:34;;;;;;;15.45;8.73;;;15.90;99.90;;;;;;4957789;28;20142;-72
2023/09/01 06:14:01;;;;;;;14.88;8.02;;;15.90;99.90;;;;;;4966516;28;20019;-72
2023/09/01 06:16:27;;;;;;;12.70;8.57;;;15.90;99.90;;;;;;4962724;28;20876;-72
2023/09/01 06:18:53;;;;;;;15.02;8.45;;;16.00;99.90;;;;;;4963505;28;20024;-72
2023/09/01 06:21:24;;;;;;;18.83;9.98;;;16.00;99.90;;;;;;4969084;28;20026;-72
2023/09/01 06:23:50;;;;;;;18.10;10.35;;;16.00;99.90;;;;;;4949405;28;20086;-72
2023/09/01 06:26:19;;;;;;;11.75;6.78;;;16.00;99.90;;;;;;4959129;28;20031;-72
2023/09/01 06:28:49;;;;;;;14.88;8.88;;;16.10;99.90;;;;;;4954328;28;20552;-72
2023/09/01 06:31:16;;;;;;;13.50;8.55;;;16.10;99.90;;;;;;4953591;28;20074;-72
2023/09/01 06:33:43;;;;;;;13.30;8.18;;;16.20;99.90;;;;;;4952096;29;20022;-73
2023/09/01 06:36:13;;;;;;;15.98;9.23;;;16.20;99.90;;;;;;4956604;28;20023;-72
2023/09/01 06:38:40;;;;;;;14.23;8.20;;;16.20;99.90;;;;;;4955458;28;20032;-72
2023/09/01 06:41:06;;;;;;;12.80;7.88;;;16.20;99.90;;;;;;4954031;28;20027;-72
2023/09/01 06:43:31;;;;;;;13.52;8.40;;;16.30;99.90;;;;;;4960663;28;20026;-72
2023/09/01 06:45:58;;;;;;;14.50;8.57;;;16.30;99.90;;;;;;4954868;28;20027;-72
2023/09/01 06:48:24;;;;;;;12.57;7.57;;;16.30;99.90;;;;;;4964748;28;20086;-71
2023/09/01 06:50:50;;;;;;;14.15;7.30;;;16.30;99.90;;;;;;4966627;28;20027;-72
2023/09/01 06:53:15;;;;;;;12.75;7.05;;;16.30;99.90;;;;;;4953331;28;20394;-72
2023/09/01 06:55:41;;;;;;;13.93;7.95;;;16.30;99.90;;;;;;4954915;28;20490;-72
2023/09/01 06:58:10;;;;;;;14.23;8.07;;;16.30;99.90;;;;;;4955006;28;20035;-72
2023/09/01 07:00:38;;;;;;;13.88;7.00;;;16.40;99.90;;;;;;4964087;28;20039;-72
2023/09/01 07:03:04;;;;;;;9.57;6.47;;;16.40;99.90;;;;;;4955760;28;20294;-71
2023/09/01 07:05:30;;;;;;;12.85;6.80;;;16.40;99.90;;;;;;4960401;28;20030;-71
2023/09/01 07:07:55;;;;;;;11.77;6.78;;;16.40;99.90;;;;;;4966255;28;20066;-72
2023/09/01 07:10:21;;;;;;;12.57;6.85;;;16.50;99.90;;;;;;4955207;28;20062;-71
2023/09/01 07:12:46;;;;;;;28.13;6.88;;;16.50;99.90;;;;;;4955623;28;20467;-71
2023/09/01 07:15:12;;;;;;;11.18;6.13;;;16.50;99.90;;;;;;4953500;28;20031;-72
2023/09/01 07:17:38;;;;;;;13.15;7.35;;;16.50;99.90;;;;;;4959854;28;20024;-71
2023/09/01 07:20:04;;;;;;;12.07;5.63;;;16.60;99.90;;;;;;4940999;28;20764;-72
2023/09/01 07:22:30;;;;;;;11.23;5.90;;;16.60;99.90;;;;;;4952251;28;20755;-72
2023/09/01 07:24:55;;;;;;;9.60;5.05;;;16.60;99.90;;;;;;4962342;28;20035;-72
2023/09/01 07:27:21;;;;;;;11.13;5.90;;;16.60;99.90;;;;;;4956855;28;20110;-72
2023/09/01 07:29:48;;;;;;;11.05;5.40;;;16.60;99.90;;;;;;4958737;28;20070;-72
2023/09/01 07:32:15;;;;;;;9.77;5.05;;;16.60;99.90;;;;;;4965218;28;20030;-73
2023/09/01 07:34:41;;;;;;;8.75;4.95;;;16.60;99.90;;;;;;4953057;28;20028;-72
2023/09/01 07:37:07;;;;;;;8.90;5.00;;;16.70;99.90;;;;;;4953333;28;20236;-72
2023/09/01 07:39:35;;;;;;;8.43;5.10;;;16.70;99.90;;;;;;4961654;28;20055;-72
2023/09/01 07:42:01;;;;;;;12.00;5.38;;;16.70;99.90;;;;;;4954462;28;20501;-72
2023/09/01 07:44:26;;;;;;;9.63;4.90;;;16.70;99.90;;;;;;4963848;28;20050;-73
2023/09/01 07:46:52;;;;;;;11.45;5.30;;;16.80;99.90;;;;;;4970718;28;20038;-72
2023/09/01 07:49:18;;;;;;;8.40;4.57;;;16.80;99.90;;;;;;4963304;28;20024;-72
2023/09/01 07:51:44;;;;;;;7.50;5.18;;;16.80;99.90;;;;;;4969458;28;20030;-72
2023/09/01 07:54:09;;;;;;;8.35;5.25;;;16.90;99.90;;;;;;4952944;28;20091;-72
2023/09/01 07:56:35;;;;;;;9.35;4.90;;;16.90;99.90;;;;;;4964693;28;20022;-72
2023/09/01 07:59:02;;;;;;;9.38;5.50;;;17.00;99.90;;;;;;4961723;28;20030;-72
2023/09/01 08:01:29;;;;;;;9.00;4.97;;;17.00;99.90;;;;;;4962880;28;20035;-71
2023/09/01 08:03:59;;;;;;;8.13;4.90;;;17.00;99.90;;;;;;4972276;28;20041;-72
2023/09/01 08:06:29;;;;;;;9.50;5.80;;;17.10;99.90;;;;;;4953555;28;20066;-70
2023/09/01 08:08:58;;;;;;;12.30;6.18;;;17.10;99.90;;;;;;4958713;28;20495;-73
2023/09/01 08:11:26;;;;;;;10.88;6.45;;;17.10;99.90;;;;;;4963131;28;20031;-71
2023/09/01 08:13:52;;;;;;;10.00;5.78;;;17.20;99.90;;;;;;4956037;28;20050;-73
2023/09/01 08:16:17;;;;;;;8.15;5.93;;;17.20;99.90;;;;;;4964656;28;20027;-72
2023/09/01 08:18:43;;;;;;;9.63;5.93;;;17.20;99.90;;;;;;4969407;28;20028;-72
2023/09/01 08:21:09;;;;;;;11.30;6.10;;;17.30;99.90;;;;;;4972740;28;20034;-72
2023/09/01 08:23:35;;;;;;;9.85;6.18;;;17.30;99.90;;;;;;4967535;28;20031;-72
2023/09/01 08:26:04;;;;;;;7.45;4.70;;;17.30;99.90;;;;;;4968489;28;20019;-73
2023/09/01 08:28:33;;;;;;;8.60;5.43;;;17.40;99.90;;;;;;4957964;28;20035;-72
2023/09/01 08:31:05;;;;;;;9.18;5.90;;;17.40;99.90;;;;;;4956172;28;20031;-72
2023/09/01 08:33:31;;;;;;;9.73;6.20;;;17.40;99.90;;;;;;4952735;28;20767;-72
2023/09/01 08:36:00;;;;;;;10.18;5.80;;;17.40;99.90;;;;;;4976891;28;20015;-72
2023/09/01 08:38:26;;;;;;;8.18;5.75;;;17.50;99.90;;;;;;4959342;28;20043;-72
2023/09/01 08:41:03;;;;;;;9.38;5.72;;;17.50;99.90;;;;;;4953007;28;20023;-71
2023/09/01 08:43:34;;;;;;;8.73;5.80;;;17.50;99.90;;;;;;4952695;28;20117;-71
2023/09/01 08:46:03;;;;;;;8.70;5.60;;;17.50;99.90;;;;;;4940172;28;20698;-72
2023/09/01 08:48:31;;;;;;;8.30;5.85;;;17.60;99.90;;;;;;4943686;28;20020;-71
2023/09/01 08:50:57;;;;;;;8.52;6.28;;;17.50;99.90;;;;;;4955904;28;20389;-71
2023/09/01 08:53:27;;;;;;;9.90;5.85;;;17.60;99.90;;;;;;4960703;28;20023;-72
2023/09/01 08:55:55;;;;;;;10.47;5.97;;;17.60;99.90;;;;;;4963380;28;20030;-72
2023/09/01 08:58:24;;;;;;;10.60;5.75;;;17.60;99.90;;;;;;4969614;28;20035;-72
2023/09/01 09:00:54;;;;;;;8.80;5.57;;;17.60;99.90;;;;;;4963225;28;20489;-72
2023/09/01 09:03:21;;;;;;;8.60;4.95;;;17.60;99.90;;;;;;4966412;28;20041;-72
2023/09/01 09:05:47;;;;;;;10.43;6.55;;;17.60;99.90;;;;;;4965808;28;20015;-72
2023/09/01 09:08:13;;;;;;;8.60;5.57;;;17.60;99.90;;;;;;4969253;28;20033;-72
2023/09/01 09:10:46;;;;;;;10.35;6.57;;;17.60;99.90;;;;;;4959921;28;20023;-72
2023/09/01 09:13:32;;;;;;;12.95;6.57;;;17.60;99.90;;;;;;4966368;28;20023;-72
2023/09/01 09:16:14;;;;;;;8.88;6.22;;;17.70;99.90;;;;;;4956053;28;20113;-71
2023/09/01 09:18:42;;;;;;;8.90;4.88;;;17.70;99.90;;;;;;4967588;28;20061;-71
2023/09/01 09:21:32;;;;;;;9.20;5.97;;;17.70;99.90;;;;;;4950245;28;20031;-72
2023/09/01 09:23:59;;;;;;;8.07;6.00;;;17.60;99.90;;;;;;4949552;28;20039;-72
2023/09/01 09:26:34;;;;;;;12.57;6.28;;;17.70;99.90;;;;;;4970495;28;20052;-72
2023/09/01 09:29:11;;;;;;;12.02;7.10;;;17.70;99.90;;;;;;4958920;28;20031;-72
2023/09/01 09:31:39;;;;;;;9.95;6.22;;;17.70;99.90;;;;;;4942071;29;20238;-71
2023/09/01 09:34:13;;;;;;;13.45;7.20;;;17.70;99.90;;;;;;4960518;28;20026;-72
2023/09/01 09:36:39;;;;;;;9.13;5.88;;;17.70;99.90;;;;;;4959379;28;20071;-71
2023/09/01 09:39:09;;;;;;;10.73;6.78;;;17.70;99.90;;;;;;4947127;29;20119;-72
2023/09/01 09:41:47;;;;;;;10.88;7.38;;;17.70;99.90;;;;;;4954828;28;20094;-72
2023/09/01 09:44:25;;;;;;;9.65;6.47;;;17.70;99.90;;;;;;4955495;28;20465;-72
2023/09/01 09:46:53;;;;;;;10.38;6.85;;;17.70;99.90;;;;;;4956578;28;20031;-72
2023/09/01 09:49:19;;;;;;;8.43;6.43;;;17.70;99.90;;;;;;4962765;28;20023;-72
2023/09/01 09:51:52;;;;;;;10.57;7.00;;;17.70;99.90;;;;;;4961075;28;20045;-72
2023/09/01 09:54:22;;;;;;;9.20;6.80;;;17.70;99.90;;;;;;4970054;28;20099;-72
2023/09/01 09:56:51;;;;;;;8.73;6.10;;;17.80;99.90;;;;;;4960231;28;20027;-72
2023/09/01 09:59:35;;;;;;;12.57;7.95;;;17.70;99.90;;;;;;4961491;28;20041;-72
2023/09/01 10:02:14;;;;;;;10.77;7.35;;;17.80;99.90;;;;;;4954551;28;20102;-73
2023/09/01 10:04:40;;;;;;;13.13;8.35;;;17.80;99.90;;;;;;4954146;28;20103;-72
2023/09/01 10:07:06;;;;;;;9.60;7.70;;;17.80;99.90;;;;;;4972160;28;20531;-72
2023/09/01 10:09:32;;;;;;;12.25;7.93;;;17.80;99.90;;;;;;4967011;28;20070;-72
2023/09/01 10:11:58;;;;;;;9.80;7.25;;;17.70;99.90;;;;;;4968170;28;20058;-72
2023/09/01 10:14:26;;;;;;;12.05;7.85;;;17.70;99.90;;;;;;4953791;28;20398;-72
2023/09/01 10:16:58;;;;;;;10.43;6.65;;;17.70;99.90;;;;;;4954844;28;20078;-72
2023/09/01 10:19:26;;;;;;;11.63;5.93;;;17.70;99.90;;;;;;4960726;28;20011;-72
2023/09/01 10:21:55;;;;;;;9.63;6.57;;;17.70;99.90;;;;;;4956438;28;20034;-71
2023/09/01 10:24:20;;;;;;;7.35;5.45;;;17.70;99.90;;;;;;4962344;28;20057;-71
2023/09/01 10:27:06;;;;;;;8.43;5.32;;;17.80;99.90;;;;;;4955495;28;20495;-71
2023/09/01 10:29:34;;;;;;;10.73;6.13;;;17.70;99.90;;;;;;4959447;28;20073;-72
2023/09/01 10:32:17;;;;;;;8.10;6.15;;;17.70;99.90;;;;;;4956272;28;20066;-72
2023/09/01 10:34:56;;;;;;;9.38;5.60;;;17.70;99.90;;;;;;4962148;28;20019;-72
2023/09/01 10:37:30;;;;;;;8.80;4.80;;;17.80;99.90;;;;;;4959457;28;20494;-72
2023/09/01 10:39:59;;;;;;;6.93;4.90;;;17.80;99.90;;;;;;4957937;28;20069;-72
2023/09/01 10:42:48;;;;;;;6.63;4.43;;;17.70;99.90;;;;;;4969029;28;20027;-71
2023/09/01 10:45:14;;;;;;;5.45;4.38;;;17.70;99.90;;;;;;4959266;28;20035;-72
2023/09/01 10:47:45;;;;;;;5.22;4.53;;;17.70;99.90;;;;;;4955634;28;20031;-72
2023/09/01 10:50:12;;;;;;;8.05;4.82;;;17.70;99.90;;;;;;4968488;28;20038;-71
2023/09/01 10:52:41;;;;;;;6.00;4.28;;;17.70;99.90;;;;;;4955736;28;20482;-71
2023/09/01 10:55:08;;;;;;;7.32;5.55;;;17.70;99.90;;;;;;4943996;29;20105;-71
2023/09/01 10:57:51;;;;;;;6.80;4.85;;;17.70;99.90;;;;;;4962160;28;20023;-72
2023/09/01 11:00:31;;;;;;;7.55;4.63;;;17.70;99.90;;;;;;4958098;28;20715;-72
2023/09/01 11:03:29;;;;;;;7.60;5.68;;;17.70;99.90;;;;;;4968262;28;20382;-72
2023/09/01 11:06:03;;;;;;;9.07;6.07;;;17.80;99.90;;;;;;4956280;28;20051;-72
2023/09/01 11:08:30;;;;;;;8.18;6.22;;;17.80;99.90;;;;;;4954139;28;20015;-72
2023/09/01 11:11:09;;;;;;;9.10;6.47;;;17.80;99.90;;;;;;4957207;28;20034;-72
2023/09/01 11:13:35;;;;;;;8.75;6.40;;;17.80;99.90;;;;;;4956738;28;20053;-72
2023/09/01 11:16:08;;;;;;;9.35;7.10;;;17.80;99.90;;;;;;4952597;28;20019;-73
2023/09/01 11:18:34;;;;;;;10.20;7.55;;;17.90;99.90;;;;;;4954225;28;20030;-72
2023/09/01 11:21:00;;;;;;;8.30;5.60;;;17.90;99.90;;;;;;4958655;28;20034;-71
2023/09/01 11:23:35;;;;;;;8.70;7.22;;;17.90;99.90;;;;;;4960097;28;20910;-72
2023/09/01 11:26:03;;;;;;;10.85;8.40;;;18.00;99.90;;;;;;4962587;28;20034;-72
2023/09/01 11:28:29;;;;;;;10.10;6.60;;;18.00;99.90;;;;;;4955997;28;20066;-72
2023/09/01 11:30:57;;;;;;;7.88;6.70;;;18.00;99.90;;;;;;4958750;28;20070;-72
2023/09/01 11:33:25;;;;;;;10.20;7.32;;;18.00;99.90;;;;;;4953644;28;20015;-72
2023/09/01 11:36:10;;;;;;;8.40;7.32;;;18.00;99.90;;;;;;4953510;28;20015;-72
2023/09/01 11:38:44;;;;;;;9.20;8.13;;;18.00;99.90;;;;;;4954557;28;20051;-72
2023/09/01 11:41:19;;;;;;;8.65;7.57;;;18.00;99.90;;;;;;4955680;28;20027;-72
2023/09/01 11:43:45;;;;;;;10.02;8.05;;;18.00;99.90;;;;;;4961060;28;20037;-72
2023/09/01 11:46:11;;;;;;;10.02;8.15;;;18.00;99.90;;;;;;4960355;28;20051;-73
2023/09/01 11:48:37;;;;;;;8.80;7.50;;;18.00;99.90;;;;;;4954203;28;20027;-73
2023/09/01 11:51:10;;;;;;;8.90;8.00;;;18.00;99.90;;;;;;4938760;28;20031;-72
2023/09/01 11:53:36;;;;;;;8.40;7.50;;;18.10;99.90;;;;;;4938231;28;20016;-72
2023/09/01 11:56:25;;;;;;;10.02;7.97;;;18.10;99.90;;;;;;4935966;29;20034;-72
2023/09/01 11:59:01;;;;;;;9.68;8.35;;;18.10;99.90;;;;;;4937686;29;20023;-72
2023/09/01 12:01:44;;;;;;;9.10;8.07;;;18.10;99.90;;;;;;4955962;28;20086;-72
2023/09/01 12:04:11;;;;;;;9.55;8.15;;;18.20;99.90;;;;;;4953015;28;20042;-72
2023/09/01 12:06:44;;;;;;;10.93;8.30;;;18.20;99.90;;;;;;4967455;28;20031;-72
2023/09/01 12:09:18;;;;;;;9.35;8.00;;;18.20;99.90;;;;;;4970077;28;20029;-72
2023/09/01 12:12:06;;;;;;;9.77;8.25;;;18.30;99.90;;;;;;4957299;28;20023;-71
2023/09/01 12:14:32;;;;;;;10.85;8.25;;;18.30;99.90;;;;;;4953904;28;20023;-72
2023/09/01 12:16:59;;;;;;;12.23;9.10;;;18.40;99.90;;;;;;4957195;28;20374;-72
2023/09/01 12:19:26;;;;;;;9.30;8.30;;;18.30;99.90;;;;;;4945298;28;20019;-72
2023/09/01 12:21:56;;;;;;;10.82;8.98;;;18.30;99.90;;;;;;4960691;28;20077;-72
2023/09/01 12:24:22;;;;;;;10.38;8.43;;;18.40;99.90;;;;;;4948905;29;20019;-71
2023/09/01 12:26:48;;;;;;;10.57;8.90;;;18.40;99.90;;;;;;4963660;28;20034;-72
2023/09/01 12:29:14;;;;;;;9.82;7.20;;;18.40;99.90;;;;;;4956480;28;20098;-72
2023/09/01 12:31:39;;;;;;;9.98;8.38;;;18.50;99.90;;;;;;4958958;28;20023;-72
2023/09/01 12:34:05;;;;;;;10.48;9.38;;;18.60;99.90;;;;;;4967032;28;20027;-72
2023/09/01 12:36:31;;;;;;;9.10;8.15;;;18.60;99.90;;;;;;4958863;28;20027;-72
2023/09/01 12:38:56;;;;;;;13.10;10.27;;;18.70;99.90;;;;;;4956274;28;20066;-72
2023/09/01 12:41:22;;;;;;;9.77;8.50;;;18.70;99.90;;;;;;4965503;28;20027;-73
2023/09/01 12:43:48;;;;;;;10.98;9.35;;;18.70;99.90;;;;;;4959700;28;20090;-72
2023/09/01 12:46:14;;;;;;;10.65;9.55;;;18.70;99.90;;;;;;4943488;28;20051;-72
2023/09/01 12:48:40;;;;;;;10.15;8.95;;;18.70;99.90;;;;;;4956503;28;20102;-72